sensor_id;sensor_type;location;lat;lon;timestamp;temperature;humidity
26182;DHT22;13927;51.534;11.866;2023-12-14T00:02:01;7.00;99.90
26182;DHT22;13927;51.534;11.866;2023-12-14T00:04:26;7.00;99.90
26182;DHT22;13927;51.534;11.866;2023-12-14T00:06:52;7.00;99.90
26182;DHT22;13927;51.534;11.866;2023-12-14T00:09:18;7.00;99.90
26182;DHT22;13927;51.534;11.866;2023-12-14T00:11:43;7.00;99.90
26182;DHT22;13927;51.534;11.866;2023-12-14T00:14:09;7.00;99.90
26182;DHT22;13927;51.534;11.866;2023-12-14T00:16:35;7.00;99.90
26182;DHT22;13927;51.534;11.866;2023-12-14T00:19:00;7.00;99.90
26182;DHT22;13927;51.534;11.866;2023-12-14T00:21:26;7.00;99.90
26182;DHT22;13927;51.534;11.866;2023-12-14T00:23:52;7.00;99.90
26182;DHT22;13927;51.534;11.866;2023-12-14T00:26:18;6.90;99.90
26182;DHT22;13927;51.534;11.866;2023-12-14T00:28:43;6.90;99.90
26182;DHT22;13927;51.534;11.866;2023-12-14T00:31:09;6.90;99.90
26182;DHT22;13927;51.534;11.866;2023-12-14T00:33:35;6.90;99.90
26182;DHT22;13927;51.534;11.866;2023-12-14T00:36:01;6.90;99.90
26182;DHT22;13927;51.534;11.866;2023-12-14T00:38:27;6.80;99.90
26182;DHT22;13927;51.534;11.866;2023-12-14T00:40:52;6.80;99.90
26182;DHT22;13927;51.534;11.866;2023-12-14T00:43:18;6.80;99.90
26182;DHT22;13927;51.534;11.866;2023-12-14T00:45:44;6.70;99.90
26182;DHT22;13927;51.534;11.866;2023-12-14T00:48:09;6.70;99.90
26182;DHT22;13927;51.534;11.866;2023-12-14T00:50:35;6.70;99.90
26182;DHT22;13927;51.534;11.866;2023-12-14T00:53:01;6.60;99.90
26182;DHT22;13927;51.534;11.866;2023-12-14T00:55:26;6.60;99.90
26182;DHT22;13927;51.534;11.866;2023-12-14T00:57:53;6.60;99.90
26182;DHT22;13927;51.534;11.866;2023-12-14T01:00:18;6.60;99.90
26182;DHT22;13927;51.534;11.866;2023-12-14T01:02:44;6.60;99.90
26182;DHT22;13927;51.534;11.866;2023-12-14T01:05:10;6.60;99.90
26182;DHT22;13927;51.534;11.866;2023-12-14T01:07:35;6.50;99.90
26182;DHT22;13927;51.534;11.866;2023-12-14T01:10:02;6.50;99.90
26182;DHT22;13927;51.534;11.866;2023-12-14T01:12:28;6.50;99.90
26182;DHT22;13927;51.534;11.866;2023-12-14T01:14:54;6.50;99.90
26182;DHT22;13927;51.534;11.866;2023-12-14T01:17:19;6.50;99.90
26182;DHT22;13927;51.534;11.866;2023-12-14T01:19:45;6.60;99.90
26182;DHT22;13927;51.534;11.866;2023-12-14T01:22:11;6.60;99.90
26182;DHT22;13927;51.534;11.866;2023-12-14T01:24:36;6.50;99.90
26182;DHT22;13927;51.534;11.866;2023-12-14T01:27:02;6.50;99.90
26182;DHT22;13927;51.534;11.866;2023-12-14T01:29:28;6.50;99.90
26182;DHT22;13927;51.534;11.866;2023-12-14T01:31:54;6.50;99.90
26182;DHT22;13927;51.534;11.866;2023-12-14T01:34:19;6.50;99.90
26182;DHT22;13927;51.534;11.866;2023-12-14T01:36:45;6.50;99.90
26182;DHT22;13927;51.534;11.866;2023-12-14T01:39:11;6.50;99.90
26182;DHT22;13927;51.534;11.866;2023-12-14T01:41:36;6.50;99.90
26182;DHT22;13927;51.534;11.866;2023-12-14T01:44:02;6.40;99.90
26182;DHT22;13927;51.534;11.866;2023-12-14T01:46:28;6.40;99.90
26182;DHT22;13927;51.534;11.866;2023-12-14T01:48:54;6.50;99.90
26182;DHT22;13927;51.534;11.866;2023-12-14T01:51:19;6.40;99.90
26182;DHT22;13927;51.534;11.866;2023-12-14T01:53:45;6.40;99.90
26182;DHT22;13927;51.534;11.866;2023-12-14T01:56:11;6.30;99.90
26182;DHT22;13927;51.534;11.866;2023-12-14T01:58:37;6.30;99.90
26182;DHT22;13927;51.534;11.866;2023-12-14T02:01:41;6.30;99.90
26182;DHT22;13927;51.534;11.866;2023-12-14T02:04:09;6.20;99.90
26182;DHT22;13927;51.534;11.866;2023-12-14T02:06:35;6.30;99.90
26182;DHT22;13927;51.534;11.866;2023-12-14T02:09:01;6.20;99.90
26182;DHT22;13927;51.534;11.866;2023-12-14T02:11:27;6.20;99.90
26182;DHT22;13927;51.534;11.866;2023-12-14T02:13:53;6.10;99.90
26182;DHT22;13927;51.534;11.866;2023-12-14T02:16:18;6.00;99.90
26182;DHT22;13927;51.534;11.866;2023-12-14T02:18:45;6.10;99.90
26182;DHT22;13927;51.534;11.866;2023-12-14T02:21:10;6.00;99.90
26182;DHT22;13927;51.534;11.866;2023-12-14T02:23:45;5.90;99.90
26182;DHT22;13927;51.534;11.866;2023-12-14T02:26:14;5.90;99.90
26182;DHT22;13927;51.534;11.866;2023-12-14T02:28:40;5.90;99.90
26182;DHT22;13927;51.534;11.866;2023-12-14T02:31:06;5.90;99.90
26182;DHT22;13927;51.534;11.866;2023-12-14T02:33:31;5.90;99.90
26182;DHT22;13927;51.534;11.866;2023-12-14T02:35:57;5.90;99.90
26182;DHT22;13927;51.534;11.866;2023-12-14T02:38:23;5.90;99.90
26182;DHT22;13927;51.534;11.866;2023-12-14T02:40:49;5.80;99.90
26182;DHT22;13927;51.534;11.866;2023-12-14T02:43:18;5.80;99.90
26182;DHT22;13927;51.534;11.866;2023-12-14T02:45:45;5.80;99.90
26182;DHT22;13927;51.534;11.866;2023-12-14T02:48:11;5.80;99.90
26182;DHT22;13927;51.534;11.866;2023-12-14T02:50:37;5.80;99.90
26182;DHT22;13927;51.534;11.866;2023-12-14T02:53:03;5.70;99.90
26182;DHT22;13927;51.534;11.866;2023-12-14T02:55:29;5.80;99.90
26182;DHT22;13927;51.534;11.866;2023-12-14T02:57:54;5.70;99.90
26182;DHT22;13927;51.534;11.866;2023-12-14T03:00:20;5.80;99.90
26182;DHT22;13927;51.534;11.866;2023-12-14T03:02:46;5.80;99.90
26182;DHT22;13927;51.534;11.866;2023-12-14T03:05:12;5.80;99.90
26182;DHT22;13927;51.534;11.866;2023-12-14T03:07:37;5.80;99.90
26182;DHT22;13927;51.534;11.866;2023-12-14T03:10:04;5.80;99.90
26182;DHT22;13927;51.534;11.866;2023-12-14T03:12:30;5.80;99.90
26182;DHT22;13927;51.534;11.866;2023-12-14T03:14:55;5.70;99.90
26182;DHT22;13927;51.534;11.866;2023-12-14T03:17:21;5.70;99.90
26182;DHT22;13927;51.534;11.866;2023-12-14T03:19:47;5.70;99.90
26182;DHT22;13927;51.534;11.866;2023-12-14T03:22:13;5.70;99.90
26182;DHT22;13927;51.534;11.866;2023-12-14T03:24:39;5.70;99.90
26182;DHT22;13927;51.534;11.866;2023-12-14T03:27:05;5.70;99.90
26182;DHT22;13927;51.534;11.866;2023-12-14T03:29:31;5.70;99.90
26182;DHT22;13927;51.534;11.866;2023-12-14T03:31:57;5.70;99.90
26182;DHT22;13927;51.534;11.866;2023-12-14T03:34:23;5.70;99.90
26182;DHT22;13927;51.534;11.866;2023-12-14T03:36:49;5.70;99.90
26182;DHT22;13927;51.534;11.866;2023-12-14T03:39:15;5.80;99.90
26182;DHT22;13927;51.534;11.866;2023-12-14T03:41:44;5.80;99.90
26182;DHT22;13927;51.534;11.866;2023-12-14T03:44:10;5.80;99.90
26182;DHT22;13927;51.534;11.866;2023-12-14T03:46:36;5.80;99.90
26182;DHT22;13927;51.534;11.866;2023-12-14T03:49:02;5.70;99.90
26182;DHT22;13927;51.534;11.866;2023-12-14T03:51:29;5.70;99.90
26182;DHT22;13927;51.534;11.866;2023-12-14T03:53:55;5.60;99.90
26182;DHT22;13927;51.534;11.866;2023-12-14T03:56:20;5.60;99.90
26182;DHT22;13927;51.534;11.866;2023-12-14T03:58:46;5.60;99.90
26182;DHT22;13927;51.534;11.866;2023-12-14T04:01:19;5.60;99.90
26182;DHT22;13927;51.534;11.866;2023-12-14T04:03:46;5.60;99.90
26182;DHT22;13927;51.534;11.866;2023-12-14T04:06:13;5.60;99.90
26182;DHT22;13927;51.534;11.866;2023-12-14T04:08:40;5.60;99.90
26182;DHT22;13927;51.534;11.866;2023-12-14T04:11:06;5.60;99.90
26182;DHT22;13927;51.534;11.866;2023-12-14T04:13:32;5.50;99.90
26182;DHT22;13927;51.534;11.866;2023-12-14T04:15:58;5.60;99.90
26182;DHT22;13927;51.534;11.866;2023-12-14T04:18:24;5.50;99.90
26182;DHT22;13927;51.534;11.866;2023-12-14T04:20:50;5.40;99.90
26182;DHT22;13927;51.534;11.866;2023-12-14T04:23:16;5.40;99.90
26182;DHT22;13927;51.534;11.866;2023-12-14T04:25:42;5.40;99.90
26182;DHT22;13927;51.534;11.866;2023-12-14T04:28:07;5.40;99.90
26182;DHT22;13927;51.534;11.866;2023-12-14T04:30:33;5.40;99.90
26182;DHT22;13927;51.534;11.866;2023-12-14T04:32:59;5.50;99.90
26182;DHT22;13927;51.534;11.866;2023-12-14T04:35:24;5.40;99.90
26182;DHT22;13927;51.534;11.866;2023-12-14T04:37:50;5.40;99.90
26182;DHT22;13927;51.534;11.866;2023-12-14T04:40:16;5.50;99.90
26182;DHT22;13927;51.534;11.866;2023-12-14T04:42:42;5.50;99.90
26182;DHT22;13927;51.534;11.866;2023-12-14T04:45:08;5.50;99.90
26182;DHT22;13927;51.534;11.866;2023-12-14T04:47:36;5.50;99.90
26182;DHT22;13927;51.534;11.866;2023-12-14T04:50:03;5.50;99.90
26182;DHT22;13927;51.534;11.866;2023-12-14T04:52:29;5.50;99.90
26182;DHT22;13927;51.534;11.866;2023-12-14T04:54:54;5.50;99.90
26182;DHT22;13927;51.534;11.866;2023-12-14T04:57:20;5.50;99.90
26182;DHT22;13927;51.534;11.866;2023-12-14T04:59:46;5.50;99.90
26182;DHT22;13927;51.534;11.866;2023-12-14T05:02:12;5.40;99.90
26182;DHT22;13927;51.534;11.866;2023-12-14T05:04:37;5.40;99.90
26182;DHT22;13927;51.534;11.866;2023-12-14T05:07:03;5.40;99.90
26182;DHT22;13927;51.534;11.866;2023-12-14T05:09:29;5.40;99.90
26182;DHT22;13927;51.534;11.866;2023-12-14T05:11:54;5.40;99.90
26182;DHT22;13927;51.534;11.866;2023-12-14T05:14:20;5.40;99.90
26182;DHT22;13927;51.534;11.866;2023-12-14T05:16:46;5.30;99.90
26182;DHT22;13927;51.534;11.866;2023-12-14T05:19:12;5.30;99.90
26182;DHT22;13927;51.534;11.866;2023-12-14T05:21:40;5.30;99.90
26182;DHT22;13927;51.534;11.866;2023-12-14T05:24:06;5.40;99.90
26182;DHT22;13927;51.534;11.866;2023-12-14T05:26:31;5.30;99.90
26182;DHT22;13927;51.534;11.866;2023-12-14T05:28:57;5.30;99.90
26182;DHT22;13927;51.534;11.866;2023-12-14T05:31:23;5.30;99.90
26182;DHT22;13927;51.534;11.866;2023-12-14T05:33:49;5.30;99.90
26182;DHT22;13927;51.534;11.866;2023-12-14T05:36:14;5.20;99.90
26182;DHT22;13927;51.534;11.866;2023-12-14T05:38:41;5.20;99.90
26182;DHT22;13927;51.534;11.866;2023-12-14T05:41:08;5.20;99.90
26182;DHT22;13927;51.534;11.866;2023-12-14T05:43:33;5.10;99.90
26182;DHT22;13927;51.534;11.866;2023-12-14T05:45:59;5.10;99.90
26182;DHT22;13927;51.534;11.866;2023-12-14T05:48:25;5.10;99.90
26182;DHT22;13927;51.534;11.866;2023-12-14T05:50:54;5.00;99.90
26182;DHT22;13927;51.534;11.866;2023-12-14T05:53:19;5.00;99.90
26182;DHT22;13927;51.534;11.866;2023-12-14T05:55:45;5.00;99.90
26182;DHT22;13927;51.534;11.866;2023-12-14T05:58:11;4.90;99.90
26182;DHT22;13927;51.534;11.866;2023-12-14T06:00:37;4.90;99.90
26182;DHT22;13927;51.534;11.866;2023-12-14T06:03:04;5.00;99.90
26182;DHT22;13927;51.534;11.866;2023-12-14T06:05:30;4.90;99.90
26182;DHT22;13927;51.534;11.866;2023-12-14T06:07:56;4.90;99.90
26182;DHT22;13927;51.534;11.866;2023-12-14T06:10:22;4.90;99.90
26182;DHT22;13927;51.534;11.866;2023-12-14T06:12:48;4.90;99.90
26182;DHT22;13927;51.534;11.866;2023-12-14T06:15:13;5.00;99.90
26182;DHT22;13927;51.534;11.866;2023-12-14T06:17:39;4.90;99.90
26182;DHT22;13927;51.534;11.866;2023-12-14T06:20:08;4.90;99.90
26182;DHT22;13927;51.534;11.866;2023-12-14T06:22:36;4.80;99.90
26182;DHT22;13927;51.534;11.866;2023-12-14T06:25:02;4.80;99.90
26182;DHT22;13927;51.534;11.866;2023-12-14T06:27:28;4.70;99.90
26182;DHT22;13927;51.534;11.866;2023-12-14T06:29:54;4.70;99.90
26182;DHT22;13927;51.534;11.866;2023-12-14T06:32:20;4.70;99.90
26182;DHT22;13927;51.534;11.866;2023-12-14T06:34:46;4.60;99.90
26182;DHT22;13927;51.534;11.866;2023-12-14T06:37:11;4.70;99.90
26182;DHT22;13927;51.534;11.866;2023-12-14T06:39:37;4.60;99.90
26182;DHT22;13927;51.534;11.866;2023-12-14T06:42:03;4.60;99.90
26182;DHT22;13927;51.534;11.866;2023-12-14T06:44:29;4.70;99.90
26182;DHT22;13927;51.534;11.866;2023-12-14T06:46:56;4.60;99.90
26182;DHT22;13927;51.534;11.866;2023-12-14T06:49:23;4.70;99.90
26182;DHT22;13927;51.534;11.866;2023-12-14T06:51:49;4.60;99.90
26182;DHT22;13927;51.534;11.866;2023-12-14T06:54:15;4.70;99.90
26182;DHT22;13927;51.534;11.866;2023-12-14T06:56:41;4.70;99.90
26182;DHT22;13927;51.534;11.866;2023-12-14T06:59:07;4.70;99.90
26182;DHT22;13927;51.534;11.866;2023-12-14T07:01:32;4.70;99.90
26182;DHT22;13927;51.534;11.866;2023-12-14T07:03:58;4.70;99.90
26182;DHT22;13927;51.534;11.866;2023-12-14T07:06:24;4.80;99.90
26182;DHT22;13927;51.534;11.866;2023-12-14T07:08:49;4.80;99.90
26182;DHT22;13927;51.534;11.866;2023-12-14T07:11:15;4.80;99.90
26182;DHT22;13927;51.534;11.866;2023-12-14T07:13:41;4.80;99.90
26182;DHT22;13927;51.534;11.866;2023-12-14T07:16:08;4.90;99.90
26182;DHT22;13927;51.534;11.866;2023-12-14T07:18:35;4.90;99.90
26182;DHT22;13927;51.534;11.866;2023-12-14T07:21:02;4.90;99.90
26182;DHT22;13927;51.534;11.866;2023-12-14T07:23:28;4.90;99.90
26182;DHT22;13927;51.534;11.866;2023-12-14T07:25:54;4.80;99.90
26182;DHT22;13927;51.534;11.866;2023-12-14T07:28:21;4.80;99.90
26182;DHT22;13927;51.534;11.866;2023-12-14T07:30:47;4.80;99.90
26182;DHT22;13927;51.534;11.866;2023-12-14T07:33:13;4.70;99.90
26182;DHT22;13927;51.534;11.866;2023-12-14T07:35:39;4.80;99.90
26182;DHT22;13927;51.534;11.866;2023-12-14T07:38:05;4.80;99.90
26182;DHT22;13927;51.534;11.866;2023-12-14T07:40:31;4.80;99.90
26182;DHT22;13927;51.534;11.866;2023-12-14T07:42:56;4.80;99.90
26182;DHT22;13927;51.534;11.866;2023-12-14T07:45:22;4.90;99.90
26182;DHT22;13927;51.534;11.866;2023-12-14T07:47:48;4.90;99.90
26182;DHT22;13927;51.534;11.866;2023-12-14T07:50:14;4.90;99.90
26182;DHT22;13927;51.534;11.866;2023-12-14T07:52:40;4.90;99.90
26182;DHT22;13927;51.534;11.866;2023-12-14T07:55:06;4.90;99.90
26182;DHT22;13927;51.534;11.866;2023-12-14T07:57:33;4.90;99.90
26182;DHT22;13927;51.534;11.866;2023-12-14T07:59:58;4.90;99.90
26182;DHT22;13927;51.534;11.866;2023-12-14T08:02:24;4.90;99.90
26182;DHT22;13927;51.534;11.866;2023-12-14T08:04:50;4.80;99.90
26182;DHT22;13927;51.534;11.866;2023-12-14T08:07:15;4.70;99.90
26182;DHT22;13927;51.534;11.866;2023-12-14T08:09:41;4.70;99.90
26182;DHT22;13927;51.534;11.866;2023-12-14T08:12:07;4.60;99.90
26182;DHT22;13927;51.534;11.866;2023-12-14T08:14:33;4.60;99.90
26182;DHT22;13927;51.534;11.866;2023-12-14T08:17:01;4.60;99.90
26182;DHT22;13927;51.534;11.866;2023-12-14T08:19:26;4.60;99.90
26182;DHT22;13927;51.534;11.866;2023-12-14T08:21:52;4.60;99.90
26182;DHT22;13927;51.534;11.866;2023-12-14T08:24:18;4.70;99.90
26182;DHT22;13927;51.534;11.866;2023-12-14T08:26:44;4.70;99.90
26182;DHT22;13927;51.534;11.866;2023-12-14T08:29:10;4.70;99.90
26182;DHT22;13927;51.534;11.866;2023-12-14T08:31:36;4.60;99.90
26182;DHT22;13927;51.534;11.866;2023-12-14T08:34:01;4.60;99.90
26182;DHT22;13927;51.534;11.866;2023-12-14T08:36:28;4.70;99.90
26182;DHT22;13927;51.534;11.866;2023-12-14T08:38:54;4.70;99.90
26182;DHT22;13927;51.534;11.866;2023-12-14T08:41:20;4.70;99.90
26182;DHT22;13927;51.534;11.866;2023-12-14T08:43:46;4.80;99.90
26182;DHT22;13927;51.534;11.866;2023-12-14T08:46:12;4.80;99.90
26182;DHT22;13927;51.534;11.866;2023-12-14T08:48:38;4.80;99.90
26182;DHT22;13927;51.534;11.866;2023-12-14T08:51:04;4.90;99.90
26182;DHT22;13927;51.534;11.866;2023-12-14T08:53:31;4.90;99.90
26182;DHT22;13927;51.534;11.866;2023-12-14T08:55:56;4.90;99.90
26182;DHT22;13927;51.534;11.866;2023-12-14T08:58:22;4.80;99.90
26182;DHT22;13927;51.534;11.866;2023-12-14T09:00:48;4.80;99.90
26182;DHT22;13927;51.534;11.866;2023-12-14T09:03:18;4.80;99.90
26182;DHT22;13927;51.534;11.866;2023-12-14T09:05:44;4.80;99.90
26182;DHT22;13927;51.534;11.866;2023-12-14T09:08:11;4.80;99.90
26182;DHT22;13927;51.534;11.866;2023-12-14T09:10:38;4.70;99.90
26182;DHT22;13927;51.534;11.866;2023-12-14T09:13:04;4.60;99.90
26182;DHT22;13927;51.534;11.866;2023-12-14T09:15:33;4.70;99.90
26182;DHT22;13927;51.534;11.866;2023-12-14T09:18:00;4.60;99.90
26182;DHT22;13927;51.534;11.866;2023-12-14T09:20:26;4.60;99.90
26182;DHT22;13927;51.534;11.866;2023-12-14T09:22:52;4.70;99.90
26182;DHT22;13927;51.534;11.866;2023-12-14T09:25:18;4.70;99.90
26182;DHT22;13927;51.534;11.866;2023-12-14T09:27:44;4.70;99.90
26182;DHT22;13927;51.534;11.866;2023-12-14T09:30:10;4.80;99.90
26182;DHT22;13927;51.534;11.866;2023-12-14T09:32:37;4.90;99.90
26182;DHT22;13927;51.534;11.866;2023-12-14T09:35:03;4.90;99.90
26182;DHT22;13927;51.534;11.866;2023-12-14T09:37:29;5.00;99.90
26182;DHT22;13927;51.534;11.866;2023-12-14T09:39:54;5.00;99.90
26182;DHT22;13927;51.534;11.866;2023-12-14T09:42:20;5.00;99.90
26182;DHT22;13927;51.534;11.866;2023-12-14T09:44:51;5.00;99.90
26182;DHT22;13927;51.534;11.866;2023-12-14T09:47:18;5.10;99.90
26182;DHT22;13927;51.534;11.866;2023-12-14T09:49:45;5.10;99.90
26182;DHT22;13927;51.534;11.866;2023-12-14T09:52:11;5.00;99.90
26182;DHT22;13927;51.534;11.866;2023-12-14T09:54:37;5.00;99.90
26182;DHT22;13927;51.534;11.866;2023-12-14T09:57:03;5.10;99.90
26182;DHT22;13927;51.534;11.866;2023-12-14T09:59:29;5.10;99.90
26182;DHT22;13927;51.534;11.866;2023-12-14T10:02:12;5.00;99.90
26182;DHT22;13927;51.534;11.866;2023-12-14T10:04:38;4.90;99.90
26182;DHT22;13927;51.534;11.866;2023-12-14T10:07:03;4.90;99.90
26182;DHT22;13927;51.534;11.866;2023-12-14T10:09:33;4.90;99.90
26182;DHT22;13927;51.534;11.866;2023-12-14T10:12:07;4.80;99.90
26182;DHT22;13927;51.534;11.866;2023-12-14T10:14:35;4.80;99.90
26182;DHT22;13927;51.534;11.866;2023-12-14T10:17:21;4.80;99.90
26182;DHT22;13927;51.534;11.866;2023-12-14T10:19:49;4.80;99.90
26182;DHT22;13927;51.534;11.866;2023-12-14T10:22:16;4.70;99.90
26182;DHT22;13927;51.534;11.866;2023-12-14T10:24:44;4.80;99.90
26182;DHT22;13927;51.534;11.866;2023-12-14T10:27:10;4.80;99.90
26182;DHT22;13927;51.534;11.866;2023-12-14T10:29:39;4.90;99.90
26182;DHT22;13927;51.534;11.866;2023-12-14T10:32:06;4.90;99.90
26182;DHT22;13927;51.534;11.866;2023-12-14T10:34:36;4.80;99.90
26182;DHT22;13927;51.534;11.866;2023-12-14T10:37:05;4.90;99.90
26182;DHT22;13927;51.534;11.866;2023-12-14T10:39:33;4.80;99.90
26182;DHT22;13927;51.534;11.866;2023-12-14T10:42:02;4.90;99.90
26182;DHT22;13927;51.534;11.866;2023-12-14T10:44:36;4.90;99.90
26182;DHT22;13927;51.534;11.866;2023-12-14T10:47:03;4.80;99.90
26182;DHT22;13927;51.534;11.866;2023-12-14T10:49:30;4.90;99.90
26182;DHT22;13927;51.534;11.866;2023-12-14T10:51:58;4.90;99.90
26182;DHT22;13927;51.534;11.866;2023-12-14T10:54:25;4.90;99.90
26182;DHT22;13927;51.534;11.866;2023-12-14T10:56:55;4.90;99.90
26182;DHT22;13927;51.534;11.866;2023-12-14T10:59:21;4.80;99.90
26182;DHT22;13927;51.534;11.866;2023-12-14T11:01:53;4.90;99.90
26182;DHT22;13927;51.534;11.866;2023-12-14T11:04:21;4.80;99.90
26182;DHT22;13927;51.534;11.866;2023-12-14T11:06:47;4.70;99.90
26182;DHT22;13927;51.534;11.866;2023-12-14T11:09:17;4.70;99.90
26182;DHT22;13927;51.534;11.866;2023-12-14T11:14:19;4.60;99.90
26182;DHT22;13927;51.534;11.866;2023-12-14T11:16:47;4.60;99.90
26182;DHT22;13927;51.534;11.866;2023-12-14T11:24:23;4.70;99.90
26182;DHT22;13927;51.534;11.866;2023-12-14T11:26:49;4.60;99.90
26182;DHT22;13927;51.534;11.866;2023-12-14T11:29:16;4.70;99.90
26182;DHT22;13927;51.534;11.866;2023-12-14T11:31:42;4.70;99.90
26182;DHT22;13927;51.534;11.866;2023-12-14T11:34:08;4.70;99.90
26182;DHT22;13927;51.534;11.866;2023-12-14T11:36:34;4.70;99.90
26182;DHT22;13927;51.534;11.866;2023-12-14T11:39:00;4.70;99.90
26182;DHT22;13927;51.534;11.866;2023-12-14T11:41:26;4.70;99.90
26182;DHT22;13927;51.534;11.866;2023-12-14T11:43:54;4.70;99.90
26182;DHT22;13927;51.534;11.866;2023-12-14T11:46:21;4.80;99.90
26182;DHT22;13927;51.534;11.866;2023-12-14T11:48:47;4.80;99.90
26182;DHT22;13927;51.534;11.866;2023-12-14T11:51:15;4.80;99.90
26182;DHT22;13927;51.534;11.866;2023-12-14T11:53:47;4.90;99.90
26182;DHT22;13927;51.534;11.866;2023-12-14T11:56:19;4.90;99.90
26182;DHT22;13927;51.534;11.866;2023-12-14T11:58:45;4.90;99.90
26182;DHT22;13927;51.534;11.866;2023-12-14T12:01:14;4.80;99.90
26182;DHT22;13927;51.534;11.866;2023-12-14T12:03:40;4.90;99.90
26182;DHT22;13927;51.534;11.866;2023-12-14T12:06:06;4.80;99.90
26182;DHT22;13927;51.534;11.866;2023-12-14T12:08:40;4.80;99.90
26182;DHT22;13927;51.534;11.866;2023-12-14T12:11:07;4.80;99.90
26182;DHT22;13927;51.534;11.866;2023-12-14T12:13:34;4.80;99.90
26182;DHT22;13927;51.534;11.866;2023-12-14T12:16:00;4.80;99.90
26182;DHT22;13927;51.534;11.866;2023-12-14T12:18:26;4.60;99.90
26182;DHT22;13927;51.534;11.866;2023-12-14T12:20:52;4.70;99.90
26182;DHT22;13927;51.534;11.866;2023-12-14T12:23:18;4.60;99.90
26182;DHT22;13927;51.534;11.866;2023-12-14T12:25:44;4.50;99.90
26182;DHT22;13927;51.534;11.866;2023-12-14T12:28:10;4.50;99.90
26182;DHT22;13927;51.534;11.866;2023-12-14T12:30:36;4.50;99.90
26182;DHT22;13927;51.534;11.866;2023-12-14T12:33:02;4.50;99.90
26182;DHT22;13927;51.534;11.866;2023-12-14T12:35:28;4.60;99.90
26182;DHT22;13927;51.534;11.866;2023-12-14T12:37:56;4.60;99.90
26182;DHT22;13927;51.534;11.866;2023-12-14T12:40:22;4.50;99.90
26182;DHT22;13927;51.534;11.866;2023-12-14T12:42:51;4.50;99.90
26182;DHT22;13927;51.534;11.866;2023-12-14T12:45:17;4.50;99.90
26182;DHT22;13927;51.534;11.866;2023-12-14T12:47:44;4.50;99.90
26182;DHT22;13927;51.534;11.866;2023-12-14T12:50:10;4.50;99.90
26182;DHT22;13927;51.534;11.866;2023-12-14T12:52:36;4.50;99.90
26182;DHT22;13927;51.534;11.866;2023-12-14T12:55:04;4.40;99.90
26182;DHT22;13927;51.534;11.866;2023-12-14T12:57:33;4.50;99.90
26182;DHT22;13927;51.534;11.866;2023-12-14T12:59:58;4.50;99.90
26182;DHT22;13927;51.534;11.866;2023-12-14T13:02:24;4.50;99.90
26182;DHT22;13927;51.534;11.866;2023-12-14T13:04:51;4.50;99.90
26182;DHT22;13927;51.534;11.866;2023-12-14T13:07:18;4.40;99.90
26182;DHT22;13927;51.534;11.866;2023-12-14T13:09:44;4.40;99.90
26182;DHT22;13927;51.534;11.866;2023-12-14T13:12:10;4.40;99.90
26182;DHT22;13927;51.534;11.866;2023-12-14T13:14:36;4.40;99.90
26182;DHT22;13927;51.534;11.866;2023-12-14T13:17:02;4.50;99.90
26182;DHT22;13927;51.534;11.866;2023-12-14T13:19:28;4.50;99.90
26182;DHT22;13927;51.534;11.866;2023-12-14T13:21:54;4.60;99.90
26182;DHT22;13927;51.534;11.866;2023-12-14T13:24:22;4.60;99.90
26182;DHT22;13927;51.534;11.866;2023-12-14T13:26:49;4.70;99.90
26182;DHT22;13927;51.534;11.866;2023-12-14T13:29:15;4.70;99.90
26182;DHT22;13927;51.534;11.866;2023-12-14T13:31:41;4.60;99.90
26182;DHT22;13927;51.534;11.866;2023-12-14T13:34:06;4.70;99.90
26182;DHT22;13927;51.534;11.866;2023-12-14T13:36:32;4.60;99.90
26182;DHT22;13927;51.534;11.866;2023-12-14T13:38:58;4.60;99.90
26182;DHT22;13927;51.534;11.866;2023-12-14T13:41:24;4.60;99.90
26182;DHT22;13927;51.534;11.866;2023-12-14T13:43:50;4.60;99.90
26182;DHT22;13927;51.534;11.866;2023-12-14T13:46:17;4.70;99.90
26182;DHT22;13927;51.534;11.866;2023-12-14T13:48:43;4.70;99.90
26182;DHT22;13927;51.534;11.866;2023-12-14T13:51:09;4.70;99.90
26182;DHT22;13927;51.534;11.866;2023-12-14T13:53:35;4.70;99.90
26182;DHT22;13927;51.534;11.866;2023-12-14T13:56:00;4.70;99.90
26182;DHT22;13927;51.534;11.866;2023-12-14T13:58:26;4.70;99.90
26182;DHT22;13927;51.534;11.866;2023-12-14T14:00:52;4.70;99.90
26182;DHT22;13927;51.534;11.866;2023-12-14T14:03:17;4.80;99.90
26182;DHT22;13927;51.534;11.866;2023-12-14T14:05:43;4.80;99.90
26182;DHT22;13927;51.534;11.866;2023-12-14T14:08:09;4.70;99.90
26182;DHT22;13927;51.534;11.866;2023-12-14T14:10:36;4.70;99.90
26182;DHT22;13927;51.534;11.866;2023-12-14T14:13:01;4.80;99.90
26182;DHT22;13927;51.534;11.866;2023-12-14T14:15:28;4.70;99.90
26182;DHT22;13927;51.534;11.866;2023-12-14T14:17:53;4.80;99.90
26182;DHT22;13927;51.534;11.866;2023-12-14T14:20:20;4.80;99.90
26182;DHT22;13927;51.534;11.866;2023-12-14T14:22:47;4.70;99.90
26182;DHT22;13927;51.534;11.866;2023-12-14T14:25:13;4.80;99.90
26182;DHT22;13927;51.534;11.866;2023-12-14T14:27:39;4.80;99.90
26182;DHT22;13927;51.534;11.866;2023-12-14T14:30:06;4.90;99.90
26182;DHT22;13927;51.534;11.866;2023-12-14T14:32:32;4.80;99.90
26182;DHT22;13927;51.534;11.866;2023-12-14T14:35:00;4.80;99.90
26182;DHT22;13927;51.534;11.866;2023-12-14T14:37:26;4.80;99.90
26182;DHT22;13927;51.534;11.866;2023-12-14T14:39:52;4.80;99.90
26182;DHT22;13927;51.534;11.866;2023-12-14T14:42:18;4.70;99.90
26182;DHT22;13927;51.534;11.866;2023-12-14T14:44:43;4.70;99.90
26182;DHT22;13927;51.534;11.866;2023-12-14T14:47:09;4.80;99.90
26182;DHT22;13927;51.534;11.866;2023-12-14T14:49:35;4.80;99.90
26182;DHT22;13927;51.534;11.866;2023-12-14T14:52:01;4.70;99.90
26182;DHT22;13927;51.534;11.866;2023-12-14T14:54:26;4.80;99.90
26182;DHT22;13927;51.534;11.866;2023-12-14T14:56:52;4.80;99.90
26182;DHT22;13927;51.534;11.866;2023-12-14T14:59:18;4.80;99.90
26182;DHT22;13927;51.534;11.866;2023-12-14T15:01:43;4.80;99.90
26182;DHT22;13927;51.534;11.866;2023-12-14T15:04:11;4.90;99.90
26182;DHT22;13927;51.534;11.866;2023-12-14T15:06:37;4.80;99.90
26182;DHT22;13927;51.534;11.866;2023-12-14T15:09:04;4.80;99.90
26182;DHT22;13927;51.534;11.866;2023-12-14T15:11:30;4.70;99.90
26182;DHT22;13927;51.534;11.866;2023-12-14T15:13:56;4.80;99.90
26182;DHT22;13927;51.534;11.866;2023-12-14T15:16:22;4.90;99.90
26182;DHT22;13927;51.534;11.866;2023-12-14T15:18:53;4.90;99.90
26182;DHT22;13927;51.534;11.866;2023-12-14T15:21:19;4.90;99.90
26182;DHT22;13927;51.534;11.866;2023-12-14T15:23:45;5.00;99.90
26182;DHT22;13927;51.534;11.866;2023-12-14T15:26:13;5.00;99.90
26182;DHT22;13927;51.534;11.866;2023-12-14T15:28:39;5.00;99.90
26182;DHT22;13927;51.534;11.866;2023-12-14T15:31:06;5.10;99.90
26182;DHT22;13927;51.534;11.866;2023-12-14T15:33:31;5.10;99.90